createdAt,value
2022-12-26T00:00:26.042Z,5.00
2022-12-26T00:01:26.020Z,4.90
2022-12-26T00:02:26.021Z,4.70
2022-12-26T00:03:26.069Z,5.20
2022-12-26T00:04:49.910Z,4.90
2022-12-26T00:05:26.965Z,5.30
2022-12-26T00:06:25.980Z,5.10
2022-12-26T00:07:25.951Z,5.00
2022-12-26T00:08:25.959Z,5.70
2022-12-26T00:09:25.951Z,5.50
2022-12-26T00:10:25.928Z,5.00
2022-12-26T00:11:25.917Z,5.50
2022-12-26T00:12:25.957Z,5.30
2022-12-26T00:13:39.789Z,5.70
2022-12-26T00:14:26.897Z,5.30
2022-12-26T00:15:25.890Z,5.20
2022-12-26T00:16:25.923Z,5.60
2022-12-26T00:17:25.850Z,5.10
2022-12-26T00:18:25.842Z,5.40
2022-12-26T00:19:25.861Z,5.70
2022-12-26T00:20:25.846Z,5.50
2022-12-26T00:21:25.844Z,5.60
2022-12-26T00:22:25.840Z,5.40
2022-12-26T00:23:25.792Z,4.80
2022-12-26T00:24:25.795Z,4.70
2022-12-26T00:25:25.859Z,4.70
2022-12-26T00:26:25.802Z,4.90
2022-12-26T00:27:25.782Z,4.90
2022-12-26T00:28:25.759Z,5.20
2022-12-26T00:29:25.728Z,4.90
2022-12-26T00:30:25.738Z,5.10
2022-12-26T00:31:25.806Z,4.90
2022-12-26T00:32:25.724Z,4.40
2022-12-26T00:33:25.706Z,4.30
2022-12-26T00:34:25.692Z,4.30
2022-12-26T00:35:25.685Z,4.80
2022-12-26T00:36:25.682Z,4.40
2022-12-26T00:37:25.688Z,4.50
2022-12-26T00:38:25.655Z,5.00
2022-12-26T00:39:25.642Z,4.70
2022-12-26T00:40:25.616Z,4.70
2022-12-26T00:41:25.691Z,4.30
2022-12-26T00:42:25.628Z,3.80
2022-12-26T00:43:25.608Z,4.60
2022-12-26T00:44:25.591Z,4.90
2022-12-26T00:45:25.596Z,4.50
2022-12-26T00:46:25.602Z,4.40
2022-12-26T00:47:25.583Z,4.50
2022-12-26T00:48:25.557Z,4.80
2022-12-26T00:49:25.541Z,4.30
2022-12-26T00:50:29.578Z,3.80
2022-12-26T00:51:27.511Z,3.70
2022-12-26T00:52:25.515Z,4.10
2022-12-26T00:53:26.629Z,3.80
2022-12-26T00:54:25.485Z,3.70
2022-12-26T00:55:25.481Z,4.00
2022-12-26T00:56:25.479Z,3.70
2022-12-26T00:57:25.489Z,4.00
2022-12-26T00:58:25.462Z,3.60
2022-12-26T00:59:25.439Z,3.60
2022-12-26T01:00:25.438Z,3.70
2022-12-26T01:01:25.711Z,4.10
2022-12-26T01:02:25.594Z,4.10
2022-12-26T01:03:25.450Z,3.40
2022-12-26T01:04:25.395Z,3.60
2022-12-26T01:05:25.382Z,4.40
2022-12-26T01:06:25.409Z,3.90
2022-12-26T01:07:25.360Z,3.60
2022-12-26T01:08:25.369Z,4.50
2022-12-26T01:09:25.370Z,4.40
2022-12-26T01:10:25.328Z,4.40
2022-12-26T01:11:25.318Z,3.90
2022-12-26T01:12:25.335Z,4.30
2022-12-26T01:13:25.304Z,3.90
2022-12-26T01:14:25.316Z,4.50
2022-12-26T01:15:25.286Z,4.10
2022-12-26T01:16:25.309Z,4.40
2022-12-26T01:17:25.262Z,4.10
2022-12-26T01:18:25.263Z,4.40
2022-12-26T01:19:25.256Z,4.10
2022-12-26T01:20:25.244Z,4.40
2022-12-26T01:21:25.247Z,4.50
2022-12-26T01:22:25.221Z,4.10
2022-12-26T01:23:25.209Z,4.30
2022-12-26T01:24:57.096Z,4.20
2022-12-26T01:25:25.172Z,4.50
2022-12-26T01:26:25.212Z,3.80
2022-12-26T01:27:25.150Z,4.00
2022-12-26T01:28:25.149Z,3.70
2022-12-26T01:29:25.140Z,4.20
2022-12-26T01:30:25.156Z,4.40
2022-12-26T01:31:25.211Z,3.90
2022-12-26T01:32:25.119Z,4.10
2022-12-26T01:33:25.095Z,3.70
2022-12-26T01:34:25.087Z,3.60
2022-12-26T01:35:25.079Z,3.90
2022-12-26T01:36:25.110Z,3.70
2022-12-26T01:37:25.067Z,4.00
2022-12-26T01:38:25.047Z,3.90
2022-12-26T01:39:25.043Z,3.90
2022-12-26T01:40:25.032Z,3.70
2022-12-26T01:41:25.040Z,3.90
2022-12-26T01:42:25.062Z,4.00
2022-12-26T01:43:24.992Z,4.00
2022-12-26T01:44:24.994Z,4.10
2022-12-26T01:45:25.046Z,4.00
2022-12-26T01:46:25.047Z,4.00
2022-12-26T01:47:24.983Z,4.10
2022-12-26T01:48:24.951Z,4.00
2022-12-26T01:49:24.931Z,3.90
2022-12-26T01:50:24.941Z,4.10
2022-12-26T01:51:24.924Z,3.90
2022-12-26T01:52:24.936Z,3.70
2022-12-26T01:53:24.904Z,4.00
2022-12-26T01:54:39.424Z,3.80
2022-12-26T01:55:25.902Z,3.70
2022-12-26T01:56:24.896Z,4.10
2022-12-26T01:57:24.873Z,3.80
2022-12-26T01:58:24.856Z,3.90
2022-12-26T01:59:24.844Z,4.20
2022-12-26T02:00:24.832Z,4.30
2022-12-26T02:01:24.899Z,4.20
2022-12-26T02:02:24.896Z,4.00
2022-12-26T02:03:24.855Z,4.20
2022-12-26T02:04:24.792Z,4.30
2022-12-26T02:05:24.788Z,4.30
2022-12-26T02:06:25.799Z,4.30
2022-12-26T02:07:24.767Z,3.80
2022-12-26T02:08:24.775Z,4.20
2022-12-26T02:09:24.743Z,4.30
2022-12-26T02:10:24.736Z,4.10
2022-12-26T02:11:24.798Z,4.10
2022-12-26T02:12:34.892Z,4.00
2022-12-26T02:13:25.708Z,4.20
2022-12-26T02:14:24.701Z,4.10
2022-12-26T02:15:24.693Z,3.90
2022-12-26T02:16:24.711Z,4.00
2022-12-26T02:17:24.694Z,4.00
2022-12-26T02:18:24.663Z,3.90
2022-12-26T02:19:24.663Z,4.30
2022-12-26T02:20:24.665Z,4.10
2022-12-26T02:21:24.638Z,3.80
2022-12-26T02:22:24.642Z,3.90
2022-12-26T02:23:24.633Z,3.80
2022-12-26T02:24:24.605Z,3.90
2022-12-26T02:25:24.590Z,3.50
2022-12-26T02:26:24.578Z,3.40
2022-12-26T02:27:24.587Z,4.40
2022-12-26T02:28:24.559Z,4.20
2022-12-26T02:29:24.557Z,4.00
2022-12-26T02:30:24.537Z,3.80
2022-12-26T02:31:24.560Z,4.00
2022-12-26T02:32:24.525Z,3.70
2022-12-26T02:33:24.514Z,3.70
2022-12-26T02:34:24.509Z,3.50
2022-12-26T02:35:24.502Z,3.30
2022-12-26T02:36:24.475Z,3.80
2022-12-26T02:37:24.484Z,3.40
2022-12-26T02:38:24.493Z,3.70
2022-12-26T02:39:44.203Z,3.90
2022-12-26T02:40:25.453Z,3.90
2022-12-26T02:41:24.429Z,3.70
2022-12-26T02:42:24.409Z,4.30
2022-12-26T02:43:24.426Z,3.50
2022-12-26T02:44:24.404Z,3.70
2022-12-26T02:45:24.395Z,3.80
2022-12-26T02:46:24.458Z,4.20
2022-12-26T02:47:24.403Z,3.30
2022-12-26T02:48:24.398Z,3.70
2022-12-26T02:49:24.363Z,3.70
2022-12-26T02:50:24.345Z,4.20
2022-12-26T02:51:24.325Z,4.30
2022-12-26T02:52:24.352Z,3.70
2022-12-26T02:53:24.336Z,3.70
2022-12-26T02:54:24.336Z,3.80
2022-12-26T02:55:24.410Z,3.70
2022-12-26T02:56:24.297Z,3.50
2022-12-26T02:57:24.289Z,3.50
2022-12-26T02:58:24.274Z,3.50
2022-12-26T02:59:54.105Z,3.50
2022-12-26T03:00:25.262Z,3.80
2022-12-26T03:01:24.281Z,3.50
2022-12-26T03:02:24.374Z,3.60
2022-12-26T03:03:24.319Z,3.40
2022-12-26T03:04:24.217Z,3.50
2022-12-26T03:05:24.233Z,3.60
2022-12-26T03:06:24.208Z,3.50
2022-12-26T03:07:24.170Z,3.90
2022-12-26T03:08:24.203Z,3.50
2022-12-26T03:09:24.189Z,3.50
2022-12-26T03:10:24.172Z,3.80
2022-12-26T03:11:24.159Z,3.20
2022-12-26T03:12:24.117Z,3.40
2022-12-26T03:13:24.121Z,3.40
2022-12-26T03:14:24.107Z,3.50
2022-12-26T03:15:24.091Z,3.50
2022-12-26T03:16:24.126Z,3.60
2022-12-26T03:17:24.091Z,3.70
2022-12-26T03:18:58.212Z,3.10
2022-12-26T03:19:25.114Z,3.50
2022-12-26T03:20:25.040Z,3.00
2022-12-26T03:21:24.034Z,3.50
2022-12-26T03:22:24.019Z,3.80
2022-12-26T03:23:24.024Z,3.80
2022-12-26T03:24:24.039Z,3.70
2022-12-26T03:25:24.003Z,3.40
2022-12-26T03:26:23.993Z,3.40
2022-12-26T03:27:23.996Z,3.40
2022-12-26T03:28:23.969Z,3.20
2022-12-26T03:29:23.990Z,3.60
2022-12-26T03:30:24.075Z,3.40
2022-12-26T03:31:24.001Z,3.40
2022-12-26T03:32:23.927Z,3.10
2022-12-26T03:33:23.915Z,3.70
2022-12-26T03:34:23.929Z,4.00
2022-12-26T03:35:23.919Z,3.30
2022-12-26T03:36:23.903Z,3.60
2022-12-26T03:37:23.873Z,3.40
2022-12-26T03:38:23.873Z,3.30
2022-12-26T03:39:23.865Z,3.40
2022-12-26T03:40:23.875Z,3.60
2022-12-26T03:41:23.849Z,3.50
2022-12-26T03:42:23.851Z,3.40
2022-12-26T03:43:23.831Z,3.30
2022-12-26T03:44:23.818Z,3.20
2022-12-26T03:45:23.841Z,3.30
2022-12-26T03:46:23.847Z,3.00
2022-12-26T03:47:23.799Z,3.70
2022-12-26T03:48:23.777Z,3.20
2022-12-26T03:49:23.776Z,3.40
2022-12-26T03:50:23.773Z,3.30
2022-12-26T03:51:23.764Z,3.40
2022-12-26T03:52:23.758Z,3.60
2022-12-26T03:53:23.726Z,3.60
2022-12-26T03:54:23.732Z,3.30
2022-12-26T03:55:23.728Z,3.50
2022-12-26T03:56:23.750Z,3.30
2022-12-26T03:57:23.699Z,3.60
2022-12-26T03:58:23.707Z,3.50
2022-12-26T03:59:23.702Z,3.40
2022-12-26T04:00:23.664Z,3.50
2022-12-26T04:01:23.769Z,3.70
2022-12-26T04:02:23.736Z,3.40
2022-12-26T04:03:23.727Z,4.30
2022-12-26T04:04:23.620Z,3.00
2022-12-26T04:05:23.613Z,3.60
2022-12-26T04:06:23.617Z,3.20
2022-12-26T04:07:23.588Z,3.40
2022-12-26T04:08:23.601Z,3.40
2022-12-26T04:09:23.592Z,3.70
2022-12-26T04:10:23.561Z,3.40
2022-12-26T04:11:23.574Z,3.60
2022-12-26T04:12:23.549Z,3.70
2022-12-26T04:13:23.528Z,3.40
2022-12-26T04:14:23.533Z,4.30
2022-12-26T04:15:23.560Z,3.50
2022-12-26T04:16:23.644Z,3.20
2022-12-26T04:17:23.510Z,3.30
2022-12-26T04:18:23.482Z,3.80
2022-12-26T04:19:23.468Z,3.30
2022-12-26T04:20:23.498Z,3.50
2022-12-26T04:21:23.457Z,3.20
2022-12-26T04:22:23.451Z,3.50
2022-12-26T04:23:23.420Z,3.30
2022-12-26T04:24:23.438Z,3.60
2022-12-26T04:25:48.372Z,3.50
2022-12-26T04:26:24.400Z,3.00
2022-12-26T04:27:23.388Z,3.50
2022-12-26T04:28:23.375Z,3.70
2022-12-26T04:29:23.379Z,3.80
2022-12-26T04:30:23.358Z,3.60
2022-12-26T04:31:23.498Z,3.20
2022-12-26T04:32:23.341Z,3.60
2022-12-26T04:33:23.356Z,3.70
2022-12-26T04:34:23.342Z,4.00
2022-12-26T04:35:23.315Z,3.70
2022-12-26T04:36:23.317Z,3.60
2022-12-26T04:37:23.328Z,3.50
2022-12-26T04:38:23.292Z,3.50
2022-12-26T04:39:23.297Z,3.40
2022-12-26T04:40:23.268Z,4.10
2022-12-26T04:41:23.251Z,3.60
2022-12-26T04:42:23.244Z,3.50
2022-12-26T04:43:50.340Z,3.10
2022-12-26T04:44:24.233Z,3.40
2022-12-26T04:45:23.241Z,3.60
2022-12-26T04:46:23.351Z,3.30
2022-12-26T04:47:23.200Z,3.30
2022-12-26T04:48:23.203Z,3.10
2022-12-26T04:49:23.176Z,3.30
2022-12-26T04:50:23.174Z,3.50
2022-12-26T04:51:23.157Z,3.30
2022-12-26T04:52:23.140Z,3.70
2022-12-26T04:53:23.153Z,3.50
2022-12-26T04:54:23.118Z,3.40
2022-12-26T04:55:23.125Z,3.30
2022-12-26T04:56:23.115Z,3.40
2022-12-26T04:57:23.099Z,3.40
2022-12-26T04:58:23.096Z,3.80
2022-12-26T04:59:23.071Z,3.40
2022-12-26T05:00:23.100Z,3.40
2022-12-26T05:01:23.154Z,3.50
2022-12-26T05:02:23.105Z,3.70
2022-12-26T05:03:23.054Z,3.80
2022-12-26T05:04:23.019Z,3.30
2022-12-26T05:05:23.038Z,3.50
2022-12-26T05:06:23.001Z,3.70
2022-12-26T05:07:23.009Z,4.10
2022-12-26T05:08:22.972Z,3.20
2022-12-26T05:09:22.975Z,3.30
2022-12-26T05:10:22.964Z,3.60
2022-12-26T05:11:22.982Z,3.60
2022-12-26T05:12:22.964Z,3.30
2022-12-26T05:13:22.938Z,3.20
2022-12-26T05:14:22.910Z,3.20
2022-12-26T05:15:22.905Z,3.60
2022-12-26T05:16:22.945Z,3.30
2022-12-26T05:17:22.897Z,3.30
2022-12-26T05:18:22.878Z,3.30
2022-12-26T05:19:22.886Z,3.40
2022-12-26T05:20:22.849Z,3.50
2022-12-26T05:21:22.872Z,3.00
2022-12-26T05:22:22.890Z,3.30
2022-12-26T05:23:22.836Z,3.80
2022-12-26T05:24:22.818Z,3.10
2022-12-26T05:25:22.808Z,3.70
2022-12-26T05:26:22.798Z,3.50
2022-12-26T05:27:22.816Z,3.30
2022-12-26T05:28:22.780Z,3.20
2022-12-26T05:29:22.775Z,3.40
2022-12-26T05:30:22.766Z,3.20
2022-12-26T05:31:22.816Z,3.20
2022-12-26T05:32:22.756Z,3.00
2022-12-26T05:33:22.729Z,3.30
2022-12-26T05:34:22.708Z,2.70
2022-12-26T05:35:22.709Z,3.20
2022-12-26T05:36:22.716Z,3.60
2022-12-26T05:37:22.686Z,3.30
2022-12-26T05:38:22.702Z,3.10
2022-12-26T05:39:22.710Z,3.10
2022-12-26T05:40:22.671Z,3.00
2022-12-26T05:41:22.664Z,2.90
2022-12-26T05:42:22.640Z,3.10
2022-12-26T05:43:22.653Z,3.20
2022-12-26T05:44:22.636Z,2.80
2022-12-26T05:45:22.639Z,3.00
2022-12-26T05:46:22.651Z,3.20
2022-12-26T05:47:22.599Z,3.20
2022-12-26T05:48:22.585Z,2.70
2022-12-26T05:49:22.599Z,2.80
2022-12-26T05:50:22.574Z,3.50
2022-12-26T05:51:22.554Z,3.00
2022-12-26T05:52:22.547Z,3.00
2022-12-26T05:53:22.533Z,3.30
2022-12-26T05:54:22.576Z,2.80
2022-12-26T05:55:22.546Z,3.30
2022-12-26T05:56:22.510Z,2.80
2022-12-26T05:57:22.505Z,2.70
2022-12-26T05:58:22.482Z,2.80
2022-12-26T05:59:22.504Z,2.90
2022-12-26T06:00:22.467Z,3.00
2022-12-26T06:01:23.584Z,2.80
2022-12-26T06:02:22.603Z,2.70
2022-12-26T06:03:22.521Z,2.80
2022-12-26T06:04:22.485Z,2.70
2022-12-26T06:05:22.410Z,2.60
2022-12-26T06:06:22.423Z,2.70
2022-12-26T06:07:22.407Z,2.90
2022-12-26T06:08:22.381Z,2.80
2022-12-26T06:09:22.439Z,2.30
2022-12-26T06:10:22.374Z,2.40
2022-12-26T06:11:22.371Z,2.50
2022-12-26T06:12:22.358Z,2.90
2022-12-26T06:13:22.339Z,2.20
2022-12-26T06:14:22.316Z,2.80
2022-12-26T06:15:22.339Z,2.50
2022-12-26T06:16:22.364Z,2.50
2022-12-26T06:17:22.307Z,2.70
2022-12-26T06:18:22.297Z,2.70
2022-12-26T06:19:22.274Z,2.50
2022-12-26T06:20:22.267Z,2.40
2022-12-26T06:21:22.268Z,2.90
2022-12-26T06:22:22.253Z,2.30
2022-12-26T06:23:22.248Z,2.40
2022-12-26T06:24:22.226Z,2.70
2022-12-26T06:25:22.220Z,2.80
2022-12-26T06:26:22.220Z,3.10
2022-12-26T06:27:22.221Z,2.70
2022-12-26T06:28:22.200Z,2.40
2022-12-26T06:29:22.186Z,3.10
2022-12-26T06:30:22.169Z,3.00
2022-12-26T06:31:22.274Z,2.90
2022-12-26T06:32:22.151Z,2.90
2022-12-26T06:33:22.143Z,2.50
2022-12-26T06:34:22.134Z,2.30
2022-12-26T06:35:22.129Z,2.70
2022-12-26T06:36:22.118Z,2.40
2022-12-26T06:37:23.132Z,2.50
2022-12-26T06:38:22.104Z,2.20
2022-12-26T06:39:22.095Z,2.60
2022-12-26T06:40:22.117Z,2.20
2022-12-26T06:41:23.228Z,2.40
2022-12-26T06:42:22.063Z,2.60
2022-12-26T06:43:22.044Z,2.30
2022-12-26T06:44:23.039Z,2.30
2022-12-26T06:45:22.060Z,2.30
2022-12-26T06:46:22.151Z,2.30
2022-12-26T06:47:22.014Z,2.30
2022-12-26T06:48:21.997Z,2.70
2022-12-26T06:49:26.214Z,2.40
2022-12-26T06:50:23.033Z,2.50
2022-12-26T06:51:21.973Z,2.60
2022-12-26T06:52:21.972Z,2.50
2022-12-26T06:53:21.946Z,2.40
2022-12-26T06:54:21.944Z,2.70
2022-12-26T06:55:21.945Z,2.40
2022-12-26T06:56:21.942Z,3.00
2022-12-26T06:57:21.902Z,2.60
2022-12-26T06:58:21.913Z,2.60
2022-12-26T06:59:21.900Z,2.40
2022-12-26T07:00:21.874Z,2.40
2022-12-26T07:01:21.942Z,2.90
2022-12-26T07:02:21.975Z,2.60
2022-12-26T07:03:21.853Z,2.40
2022-12-26T07:04:21.867Z,2.40
2022-12-26T07:05:21.832Z,2.40
2022-12-26T07:06:21.830Z,2.90
2022-12-26T07:07:21.820Z,2.80
2022-12-26T07:08:21.787Z,2.40
2022-12-26T07:09:21.837Z,2.20
2022-12-26T07:10:21.784Z,2.80
2022-12-26T07:11:21.768Z,2.90
2022-12-26T07:12:21.764Z,2.70
2022-12-26T07:13:21.750Z,2.20
2022-12-26T07:14:21.735Z,2.20
2022-12-26T07:15:21.746Z,2.70
2022-12-26T07:16:21.797Z,2.50
2022-12-26T07:17:21.715Z,2.40
2022-12-26T07:18:21.704Z,2.60
2022-12-26T07:19:21.700Z,2.80
2022-12-26T07:20:21.699Z,2.80
2022-12-26T07:21:21.684Z,3.00
2022-12-26T07:22:21.682Z,2.40
2022-12-26T07:23:21.648Z,2.60
2022-12-26T07:24:35.091Z,2.40
2022-12-26T07:25:21.631Z,2.50
2022-12-26T07:26:21.619Z,2.90
2022-12-26T07:27:21.636Z,2.80
2022-12-26T07:28:21.606Z,3.10
2022-12-26T07:29:21.599Z,2.90
2022-12-26T07:30:21.586Z,2.80
2022-12-26T07:31:21.617Z,3.20
2022-12-26T07:32:21.560Z,3.30
2022-12-26T07:33:21.575Z,2.90
2022-12-26T07:34:24.058Z,3.20
2022-12-26T07:35:22.536Z,2.80
2022-12-26T07:36:21.523Z,2.70
2022-12-26T07:37:21.522Z,2.90
2022-12-26T07:38:21.554Z,3.50
2022-12-26T07:39:21.498Z,2.50
2022-12-26T07:40:21.492Z,2.70
2022-12-26T07:41:21.492Z,2.90
2022-12-26T07:42:21.483Z,3.10
2022-12-26T07:43:21.478Z,3.20
2022-12-26T07:44:21.471Z,3.40
2022-12-26T07:45:21.437Z,3.60
2022-12-26T07:46:21.485Z,3.20
2022-12-26T07:47:21.440Z,3.50
2022-12-26T07:48:21.406Z,3.30
2022-12-26T07:49:21.413Z,3.10
2022-12-26T07:50:21.404Z,2.90
2022-12-26T07:51:21.385Z,3.50
2022-12-26T07:52:21.396Z,3.80
2022-12-26T07:53:21.377Z,3.60
2022-12-26T07:54:21.386Z,3.70
2022-12-26T07:55:21.346Z,3.20
2022-12-26T07:56:21.348Z,3.70
2022-12-26T07:57:50.234Z,3.40
2022-12-26T07:58:23.317Z,3.70
2022-12-26T07:59:21.303Z,3.60
2022-12-26T08:00:21.298Z,3.90
2022-12-26T08:01:21.390Z,4.00
2022-12-26T08:02:21.538Z,3.70
2022-12-26T08:03:21.357Z,3.80
2022-12-26T08:04:21.256Z,3.50
2022-12-26T08:05:21.257Z,3.60
2022-12-26T08:06:21.259Z,3.20
2022-12-26T08:07:21.238Z,3.70
2022-12-26T08:08:21.223Z,3.40
2022-12-26T08:09:21.218Z,3.60
2022-12-26T08:10:21.215Z,4.40
2022-12-26T08:11:21.221Z,3.40
2022-12-26T08:12:21.186Z,3.60
2022-12-26T08:13:21.173Z,3.50
2022-12-26T08:14:21.169Z,3.60
2022-12-26T08:15:21.151Z,3.30
2022-12-26T08:16:21.170Z,3.70
2022-12-26T08:17:21.179Z,3.40
2022-12-26T08:18:21.144Z,3.50
2022-12-26T08:19:21.109Z,3.60
2022-12-26T08:20:21.099Z,3.60
2022-12-26T08:21:21.122Z,3.80
2022-12-26T08:22:21.091Z,3.70
2022-12-26T08:23:21.060Z,3.60
2022-12-26T08:24:21.054Z,4.20
2022-12-26T08:25:22.032Z,3.90
2022-12-26T08:26:21.041Z,4.20
2022-12-26T08:27:21.045Z,3.90
2022-12-26T08:28:21.025Z,3.90
2022-12-26T08:29:21.020Z,3.80
2022-12-26T08:30:21.048Z,3.80
2022-12-26T08:31:21.130Z,3.70
2022-12-26T08:32:21.009Z,3.70
2022-12-26T08:33:20.975Z,3.50
2022-12-26T08:34:20.958Z,4.00
2022-12-26T08:35:20.962Z,3.60
2022-12-26T08:36:20.955Z,3.60
2022-12-26T08:37:20.974Z,3.10
2022-12-26T08:38:20.934Z,3.70
2022-12-26T08:39:20.917Z,3.50
2022-12-26T08:40:41.413Z,3.30
2022-12-26T08:41:22.922Z,3.80
2022-12-26T08:42:20.894Z,3.80
2022-12-26T08:43:38.707Z,3.40
2022-12-26T08:44:27.572Z,3.60
2022-12-26T08:45:22.859Z,3.60
2022-12-26T08:46:20.936Z,3.30
2022-12-26T08:47:20.857Z,3.90
2022-12-26T08:48:20.832Z,2.80
2022-12-26T08:49:20.836Z,3.30
2022-12-26T08:50:20.811Z,3.50
2022-12-26T08:51:20.820Z,3.60
2022-12-26T08:52:20.809Z,3.60
2022-12-26T08:53:20.790Z,2.80
2022-12-26T08:54:20.767Z,3.30
2022-12-26T08:55:20.768Z,3.10
2022-12-26T08:56:20.822Z,2.70
2022-12-26T08:57:20.747Z,3.20
2022-12-26T08:58:20.800Z,3.10
2022-12-26T08:59:20.734Z,2.60
2022-12-26T09:00:20.718Z,3.10
2022-12-26T09:01:20.792Z,3.60
2022-12-26T09:02:20.937Z,3.20
2022-12-26T09:03:20.743Z,3.00
2022-12-26T09:04:20.677Z,3.00
2022-12-26T09:05:20.657Z,1.50
2022-12-26T09:06:20.649Z,0.60
2022-12-26T09:07:20.723Z,0.40
2022-12-26T09:08:20.660Z,0.30
2022-12-26T09:09:20.656Z,0.40
2022-12-26T09:10:20.622Z,0.40
2022-12-26T09:11:20.605Z,0.30
2022-12-26T09:12:20.588Z,0.70
2022-12-26T09:13:21.401Z,0.60
2022-12-26T09:14:20.605Z,0.70
2022-12-26T09:15:20.554Z,0.60
2022-12-26T09:16:20.621Z,0.50
2022-12-26T09:17:20.592Z,0.20
2022-12-26T09:18:20.552Z,0.50
2022-12-26T09:19:20.553Z,0.30
2022-12-26T09:20:20.518Z,0.50
2022-12-26T09:21:20.524Z,0.60
2022-12-26T09:22:20.486Z,0.70
2022-12-26T09:23:20.486Z,0.50
2022-12-26T09:24:20.469Z,0.60
2022-12-26T09:25:20.466Z,0.70
2022-12-26T09:26:20.523Z,0.30
2022-12-26T09:27:20.453Z,0.50
2022-12-26T09:28:20.430Z,0.40
2022-12-26T09:29:20.418Z,0.30
2022-12-26T09:30:20.413Z,0.30
2022-12-26T09:31:20.468Z,0.50
2022-12-26T09:32:20.403Z,0.40
2022-12-26T09:33:20.391Z,0.40
2022-12-26T09:34:20.376Z,0.50
2022-12-26T09:35:20.402Z,0.50
2022-12-26T09:36:20.437Z,0.40
2022-12-26T09:37:20.391Z,0.50
2022-12-26T09:38:20.349Z,0.60
2022-12-26T09:39:20.338Z,0.60
2022-12-26T09:40:20.317Z,0.70
2022-12-26T09:41:20.322Z,0.90
2022-12-26T09:42:20.308Z,0.60
2022-12-26T09:43:20.296Z,0.90
2022-12-26T09:44:20.302Z,0.80
2022-12-26T09:45:20.275Z,0.70
2022-12-26T09:46:20.313Z,0.70
2022-12-26T09:47:20.270Z,0.60
2022-12-26T09:48:20.249Z,0.60
2022-12-26T09:49:20.246Z,0.80
2022-12-26T09:50:20.238Z,0.60
2022-12-26T09:51:20.216Z,0.70
2022-12-26T09:52:20.274Z,0.80
2022-12-26T09:53:20.201Z,0.80
2022-12-26T09:54:20.196Z,0.70
2022-12-26T09:55:20.183Z,0.80
2022-12-26T09:57:01.228Z,0.90
2022-12-26T09:57:22.200Z,1.00
2022-12-26T09:58:20.141Z,1.50
2022-12-26T09:59:20.137Z,1.30
2022-12-26T10:00:20.134Z,1.30
2022-12-26T10:01:20.235Z,1.20
2022-12-26T10:02:20.273Z,1.00
2022-12-26T10:03:20.127Z,0.90
2022-12-26T10:04:23.586Z,0.70
2022-12-26T10:05:22.091Z,1.10
2022-12-26T10:06:20.074Z,0.70
2022-12-26T10:07:20.060Z,0.80
2022-12-26T10:08:20.062Z,0.80
2022-12-26T10:09:20.045Z,1.00
2022-12-26T10:10:20.051Z,0.60
2022-12-26T10:11:20.034Z,0.70
2022-12-26T10:12:20.020Z,0.90
2022-12-26T10:13:20.007Z,0.60
2022-12-26T10:14:22.005Z,0.60
2022-12-26T10:15:20.980Z,0.60
2022-12-26T10:16:20.034Z,0.90
2022-12-26T10:17:19.963Z,0.90
2022-12-26T10:18:19.953Z,0.80
2022-12-26T10:19:19.939Z,0.90
2022-12-26T10:20:19.933Z,0.90
2022-12-26T10:21:19.936Z,1.10
2022-12-26T10:22:19.917Z,1.40
2022-12-26T10:23:19.933Z,1.30
2022-12-26T10:24:19.895Z,1.90
2022-12-26T10:25:19.887Z,1.20
2022-12-26T10:26:19.885Z,1.40
2022-12-26T10:27:19.862Z,1.50
2022-12-26T10:28:19.881Z,1.40
2022-12-26T10:29:19.848Z,1.20
2022-12-26T10:30:19.874Z,1.50
2022-12-26T10:31:19.863Z,1.00
2022-12-26T10:32:25.969Z,0.80
2022-12-26T10:33:21.821Z,1.00
2022-12-26T10:34:19.820Z,0.70
2022-12-26T10:35:19.811Z,2.20
2022-12-26T10:36:19.788Z,1.40
2022-12-26T10:37:19.777Z,3.00
2022-12-26T10:38:25.610Z,3.20
2022-12-26T10:39:20.789Z,1.30
2022-12-26T10:40:19.852Z,1.80
2022-12-26T10:41:19.738Z,0.90
2022-12-26T10:42:19.723Z,2.00
2022-12-26T10:43:19.706Z,1.80
2022-12-26T10:44:25.573Z,1.40
2022-12-26T10:45:21.725Z,1.40
2022-12-26T10:46:19.705Z,1.10
2022-12-26T10:47:19.660Z,1.20
2022-12-26T10:48:20.650Z,0.90
2022-12-26T10:49:19.653Z,1.20
2022-12-26T10:50:25.400Z,1.10
2022-12-26T10:51:21.632Z,0.90
2022-12-26T10:52:19.645Z,1.20
2022-12-26T10:53:19.627Z,1.10
2022-12-26T10:54:19.602Z,1.20
2022-12-26T10:55:29.271Z,0.60
2022-12-26T10:56:20.589Z,1.60
2022-12-26T10:57:19.579Z,0.80
2022-12-26T10:58:19.555Z,0.70
2022-12-26T10:59:19.579Z,1.50
2022-12-26T11:00:19.638Z,2.10
2022-12-26T11:01:19.660Z,1.00
2022-12-26T11:02:19.694Z,1.00
2022-12-26T11:03:19.667Z,0.40
2022-12-26T11:04:31.431Z,0.80
2022-12-26T11:05:40.260Z,0.50
2022-12-26T11:06:21.499Z,0.50
2022-12-26T11:07:19.485Z,0.60
2022-12-26T11:08:19.500Z,0.60
2022-12-26T11:09:19.456Z,0.90
2022-12-26T11:10:19.442Z,1.80
2022-12-26T11:11:19.428Z,0.70
2022-12-26T11:12:19.428Z,0.70
2022-12-26T11:13:19.431Z,0.60
2022-12-26T11:14:19.414Z,0.50
2022-12-26T11:15:19.393Z,0.50
2022-12-26T11:16:19.402Z,0.60
2022-12-26T11:17:19.372Z,0.80
2022-12-26T11:18:19.390Z,0.70
2022-12-26T11:19:19.356Z,1.00
2022-12-26T11:20:19.346Z,1.00
2022-12-26T11:21:19.353Z,1.10
2022-12-26T11:22:19.317Z,1.00
2022-12-26T11:23:19.323Z,1.10
2022-12-26T11:24:19.316Z,1.00
2022-12-26T11:25:19.305Z,1.00
2022-12-26T11:26:19.302Z,1.10
2022-12-26T11:27:19.282Z,1.00
2022-12-26T11:28:19.271Z,1.10
2022-12-26T11:29:19.256Z,1.00
2022-12-26T11:30:19.248Z,0.80
2022-12-26T11:31:19.396Z,0.90
2022-12-26T11:32:19.234Z,1.00
2022-12-26T11:33:19.230Z,1.00
2022-12-26T11:34:19.207Z,0.90
2022-12-26T11:35:19.212Z,1.10
2022-12-26T11:36:19.202Z,1.20
2022-12-26T11:37:19.179Z,1.20
2022-12-26T11:38:19.182Z,1.10
2022-12-26T11:39:19.161Z,1.50
2022-12-26T11:40:19.169Z,1.30
2022-12-26T11:41:19.138Z,1.40
2022-12-26T11:42:19.146Z,1.30
2022-12-26T11:43:19.111Z,1.40
2022-12-26T11:44:19.115Z,1.20
2022-12-26T11:45:19.122Z,1.50
2022-12-26T11:46:19.157Z,1.20
2022-12-26T11:47:19.121Z,1.20
2022-12-26T11:48:19.091Z,1.10
2022-12-26T11:49:19.056Z,1.10
2022-12-26T11:50:19.052Z,1.20
2022-12-26T11:51:19.033Z,1.10
2022-12-26T11:52:19.036Z,1.00
2022-12-26T11:53:19.025Z,1.00
2022-12-26T11:54:19.000Z,1.20
2022-12-26T11:55:18.999Z,1.20
2022-12-26T11:56:18.989Z,1.10
2022-12-26T11:57:18.974Z,1.10
2022-12-26T11:58:19.002Z,1.30
2022-12-26T11:59:18.961Z,1.40
2022-12-26T12:00:18.950Z,1.50
2022-12-26T12:01:19.010Z,1.60
2022-12-26T12:02:18.984Z,1.40
2022-12-26T12:03:18.964Z,1.60
2022-12-26T12:04:18.909Z,1.70
2022-12-26T12:05:18.904Z,2.30
2022-12-26T12:06:18.883Z,2.00
2022-12-26T12:07:18.885Z,1.60
2022-12-26T12:08:18.875Z,2.10
2022-12-26T12:09:18.897Z,2.00
2022-12-26T12:10:18.853Z,1.80
2022-12-26T12:11:18.841Z,2.40
2022-12-26T12:12:18.858Z,2.00
2022-12-26T12:13:18.835Z,2.10
2022-12-26T12:14:18.836Z,2.40
2022-12-26T12:15:18.792Z,2.30
2022-12-26T12:16:18.850Z,2.40
2022-12-26T12:17:18.787Z,2.00
2022-12-26T12:18:18.775Z,2.00
2022-12-26T12:19:18.770Z,2.10
2022-12-26T12:20:18.768Z,2.10
2022-12-26T12:21:18.768Z,2.00
2022-12-26T12:22:18.749Z,2.10
2022-12-26T12:23:18.745Z,1.80
2022-12-26T12:24:18.720Z,1.80
2022-12-26T12:25:18.722Z,1.60
2022-12-26T12:26:18.704Z,1.80
2022-12-26T12:27:18.708Z,1.90
2022-12-26T12:28:18.690Z,2.00
2022-12-26T12:29:18.658Z,2.40
2022-12-26T12:30:18.663Z,2.50
2022-12-26T12:31:18.689Z,2.70
2022-12-26T12:32:18.673Z,2.20
2022-12-26T12:33:18.644Z,2.40
2022-12-26T12:34:18.624Z,2.00
2022-12-26T12:35:18.599Z,2.80
2022-12-26T12:36:18.607Z,3.00
2022-12-26T12:37:18.646Z,2.10
2022-12-26T12:38:18.585Z,2.90
2022-12-26T12:39:18.569Z,2.50
2022-12-26T12:40:18.572Z,1.90
2022-12-26T12:41:18.559Z,1.30
2022-12-26T12:42:18.528Z,1.30
2022-12-26T12:43:19.554Z,1.40
2022-12-26T12:44:18.534Z,1.50
2022-12-26T12:45:18.507Z,1.80
2022-12-26T12:46:18.503Z,1.60
2022-12-26T12:47:18.492Z,1.40
2022-12-26T12:48:18.537Z,1.50
2022-12-26T12:49:18.485Z,1.20
2022-12-26T12:50:18.466Z,1.40
2022-12-26T12:51:18.460Z,1.80
2022-12-26T12:52:18.436Z,4.00
2022-12-26T12:53:18.458Z,2.30
2022-12-26T12:54:18.423Z,4.80
2022-12-26T12:55:18.416Z,3.00
2022-12-26T12:56:18.403Z,2.30
2022-12-26T12:57:18.402Z,5.80
2022-12-26T12:58:18.379Z,2.60
2022-12-26T12:59:18.391Z,1.90
2022-12-26T13:00:18.363Z,1.50
2022-12-26T13:01:18.414Z,1.20
2022-12-26T13:02:20.628Z,1.50
2022-12-26T13:03:19.375Z,1.60
2022-12-26T13:04:18.338Z,1.70
2022-12-26T13:05:18.314Z,1.60
2022-12-26T13:06:18.325Z,1.80
2022-12-26T13:07:18.295Z,2.10
2022-12-26T13:08:18.279Z,2.50
2022-12-26T13:09:18.291Z,1.90
2022-12-26T13:10:18.277Z,2.60
2022-12-26T13:11:18.289Z,2.20
2022-12-26T13:12:18.262Z,1.50
2022-12-26T13:13:18.239Z,1.80
2022-12-26T13:14:18.221Z,1.20
2022-12-26T13:15:18.219Z,1.60
2022-12-26T13:16:18.276Z,2.40
2022-12-26T13:17:18.233Z,2.00
2022-12-26T13:18:18.211Z,1.10